sensor_id;sensor_type;location;lat;lon;timestamp;temperature;humidity
41816;DHT22;27814;53.452;-6.180;2023-02-01T00:01:23;8.40;99.90
41816;DHT22;27814;53.452;-6.180;2023-02-01T00:03:51;8.40;99.90
41816;DHT22;27814;53.452;-6.180;2023-02-01T00:06:20;8.40;99.90
41816;DHT22;27814;53.452;-6.180;2023-02-01T00:08:48;8.40;99.90
41816;DHT22;27814;53.452;-6.180;2023-02-01T00:11:16;8.40;99.90
41816;DHT22;27814;53.452;-6.180;2023-02-01T00:13:45;8.40;99.90
41816;DHT22;27814;53.452;-6.180;2023-02-01T00:16:15;8.40;99.90
41816;DHT22;27814;53.452;-6.180;2023-02-01T00:18:45;8.40;99.90
41816;DHT22;27814;53.452;-6.180;2023-02-01T00:21:15;8.40;99.90
41816;DHT22;27814;53.452;-6.180;2023-02-01T00:23:44;8.30;99.90
41816;DHT22;27814;53.452;-6.180;2023-02-01T00:26:15;8.40;99.90
41816;DHT22;27814;53.452;-6.180;2023-02-01T00:28:44;8.40;99.90
41816;DHT22;27814;53.452;-6.180;2023-02-01T00:31:12;8.30;99.90
41816;DHT22;27814;53.452;-6.180;2023-02-01T00:33:42;8.30;99.90
41816;DHT22;27814;53.452;-6.180;2023-02-01T00:36:11;8.30;99.90
41816;DHT22;27814;53.452;-6.180;2023-02-01T00:38:40;8.30;99.90
41816;DHT22;27814;53.452;-6.180;2023-02-01T00:41:11;8.30;99.90
41816;DHT22;27814;53.452;-6.180;2023-02-01T00:43:40;8.30;99.90
41816;DHT22;27814;53.452;-6.180;2023-02-01T00:46:09;8.30;99.90
41816;DHT22;27814;53.452;-6.180;2023-02-01T00:48:38;8.30;99.90
41816;DHT22;27814;53.452;-6.180;2023-02-01T00:51:08;8.30;99.90
41816;DHT22;27814;53.452;-6.180;2023-02-01T00:53:39;8.40;99.90
41816;DHT22;27814;53.452;-6.180;2023-02-01T00:56:07;8.40;99.90
41816;DHT22;27814;53.452;-6.180;2023-02-01T00:58:36;8.40;99.90
41816;DHT22;27814;53.452;-6.180;2023-02-01T01:01:06;8.40;99.90
41816;DHT22;27814;53.452;-6.180;2023-02-01T01:03:36;8.30;99.90
41816;DHT22;27814;53.452;-6.180;2023-02-01T01:06:06;8.40;99.90
41816;DHT22;27814;53.452;-6.180;2023-02-01T01:08:35;8.30;99.90
41816;DHT22;27814;53.452;-6.180;2023-02-01T01:11:06;8.30;99.90
41816;DHT22;27814;53.452;-6.180;2023-02-01T01:13:35;8.30;99.90
41816;DHT22;27814;53.452;-6.180;2023-02-01T01:16:04;8.30;99.90
41816;DHT22;27814;53.452;-6.180;2023-02-01T01:18:34;8.30;99.90
41816;DHT22;27814;53.452;-6.180;2023-02-01T01:21:04;8.30;99.90
41816;DHT22;27814;53.452;-6.180;2023-02-01T01:23:34;8.30;99.90
41816;DHT22;27814;53.452;-6.180;2023-02-01T01:26:06;8.30;99.90
41816;DHT22;27814;53.452;-6.180;2023-02-01T01:28:35;8.30;99.90
41816;DHT22;27814;53.452;-6.180;2023-02-01T01:31:03;8.30;99.90
41816;DHT22;27814;53.452;-6.180;2023-02-01T01:33:32;8.30;99.90
41816;DHT22;27814;53.452;-6.180;2023-02-01T01:36:00;8.30;99.90
41816;DHT22;27814;53.452;-6.180;2023-02-01T01:38:29;8.30;99.90
41816;DHT22;27814;53.452;-6.180;2023-02-01T01:40:58;8.30;99.90
41816;DHT22;27814;53.452;-6.180;2023-02-01T01:43:50;8.30;99.90
41816;DHT22;27814;53.452;-6.180;2023-02-01T01:46:20;8.30;99.90
41816;DHT22;27814;53.452;-6.180;2023-02-01T01:48:52;8.30;99.90
41816;DHT22;27814;53.452;-6.180;2023-02-01T01:51:23;8.30;99.90
41816;DHT22;27814;53.452;-6.180;2023-02-01T01:53:58;8.40;99.90
41816;DHT22;27814;53.452;-6.180;2023-02-01T01:56:29;8.30;99.90
41816;DHT22;27814;53.452;-6.180;2023-02-01T01:59:00;8.30;99.90
41816;DHT22;27814;53.452;-6.180;2023-02-01T02:01:29;8.30;99.90
41816;DHT22;27814;53.452;-6.180;2023-02-01T02:03:57;8.30;99.90
41816;DHT22;27814;53.452;-6.180;2023-02-01T02:06:35;8.30;99.90
41816;DHT22;27814;53.452;-6.180;2023-02-01T02:09:05;8.30;99.90
41816;DHT22;27814;53.452;-6.180;2023-02-01T02:11:33;8.30;99.90
41816;DHT22;27814;53.452;-6.180;2023-02-01T02:14:06;8.30;99.90
41816;DHT22;27814;53.452;-6.180;2023-02-01T02:19:54;8.20;99.90
41816;DHT22;27814;53.452;-6.180;2023-02-01T02:26:11;8.20;99.90
41816;DHT22;27814;53.452;-6.180;2023-02-01T02:29:04;8.20;99.90
41816;DHT22;27814;53.452;-6.180;2023-02-01T02:31:58;8.20;99.90
41816;DHT22;27814;53.452;-6.180;2023-02-01T02:34:38;8.20;99.90
41816;DHT22;27814;53.452;-6.180;2023-02-01T02:37:13;8.20;99.90
41816;DHT22;27814;53.452;-6.180;2023-02-01T02:39:53;8.20;99.90
41816;DHT22;27814;53.452;-6.180;2023-02-01T02:42:27;8.20;99.90
41816;DHT22;27814;53.452;-6.180;2023-02-01T02:45:18;8.20;99.90
41816;DHT22;27814;53.452;-6.180;2023-02-01T02:48:13;8.20;99.90
41816;DHT22;27814;53.452;-6.180;2023-02-01T02:50:50;8.10;99.90
41816;DHT22;27814;53.452;-6.180;2023-02-01T02:53:41;8.20;99.90
41816;DHT22;27814;53.452;-6.180;2023-02-01T02:56:29;8.10;99.90
41816;DHT22;27814;53.452;-6.180;2023-02-01T02:59:19;8.10;99.90
41816;DHT22;27814;53.452;-6.180;2023-02-01T03:02:08;8.10;99.90
41816;DHT22;27814;53.452;-6.180;2023-02-01T03:04:54;8.10;99.90
41816;DHT22;27814;53.452;-6.180;2023-02-01T03:10:37;8.10;99.90
41816;DHT22;27814;53.452;-6.180;2023-02-01T03:13:11;8.10;99.90
41816;DHT22;27814;53.452;-6.180;2023-02-01T03:15:42;8.10;99.90
41816;DHT22;27814;53.452;-6.180;2023-02-01T03:18:15;8.10;99.90
41816;DHT22;27814;53.452;-6.180;2023-02-01T03:20:49;8.10;99.90
41816;DHT22;27814;53.452;-6.180;2023-02-01T03:23:23;8.10;99.90
41816;DHT22;27814;53.452;-6.180;2023-02-01T03:25:56;8.00;99.90
41816;DHT22;27814;53.452;-6.180;2023-02-01T03:28:28;8.00;99.90
41816;DHT22;27814;53.452;-6.180;2023-02-01T03:30:58;8.00;99.90
41816;DHT22;27814;53.452;-6.180;2023-02-01T03:33:27;8.00;99.90
41816;DHT22;27814;53.452;-6.180;2023-02-01T03:36:03;8.00;99.90
41816;DHT22;27814;53.452;-6.180;2023-02-01T03:38:39;8.00;99.90
41816;DHT22;27814;53.452;-6.180;2023-02-01T03:41:13;8.00;99.90
41816;DHT22;27814;53.452;-6.180;2023-02-01T03:43:54;8.00;99.90
41816;DHT22;27814;53.452;-6.180;2023-02-01T03:46:27;8.10;99.90
41816;DHT22;27814;53.452;-6.180;2023-02-01T03:49:02;8.00;99.90
41816;DHT22;27814;53.452;-6.180;2023-02-01T03:51:33;8.10;99.90
41816;DHT22;27814;53.452;-6.180;2023-02-01T03:54:03;8.00;99.90
41816;DHT22;27814;53.452;-6.180;2023-02-01T03:56:37;8.00;99.90
41816;DHT22;27814;53.452;-6.180;2023-02-01T03:59:06;8.00;99.90
41816;DHT22;27814;53.452;-6.180;2023-02-01T04:01:35;8.00;99.90
41816;DHT22;27814;53.452;-6.180;2023-02-01T04:04:03;8.00;99.90
41816;DHT22;27814;53.452;-6.180;2023-02-01T04:06:32;8.00;99.90
41816;DHT22;27814;53.452;-6.180;2023-02-01T04:09:00;8.00;99.90
41816;DHT22;27814;53.452;-6.180;2023-02-01T04:11:29;8.00;99.90
41816;DHT22;27814;53.452;-6.180;2023-02-01T04:13:59;8.10;99.90
41816;DHT22;27814;53.452;-6.180;2023-02-01T04:16:31;8.10;99.90
41816;DHT22;27814;53.452;-6.180;2023-02-01T04:19:00;8.10;99.90
41816;DHT22;27814;53.452;-6.180;2023-02-01T04:21:29;8.10;99.90
41816;DHT22;27814;53.452;-6.180;2023-02-01T04:23:57;8.10;99.90
41816;DHT22;27814;53.452;-6.180;2023-02-01T04:26:26;8.10;99.90
41816;DHT22;27814;53.452;-6.180;2023-02-01T04:28:54;8.10;99.90
41816;DHT22;27814;53.452;-6.180;2023-02-01T04:31:24;8.10;99.90
41816;DHT22;27814;53.452;-6.180;2023-02-01T04:33:55;8.20;99.90
41816;DHT22;27814;53.452;-6.180;2023-02-01T04:36:24;8.20;99.90
41816;DHT22;27814;53.452;-6.180;2023-02-01T04:38:52;8.20;99.90
41816;DHT22;27814;53.452;-6.180;2023-02-01T04:41:20;8.20;99.90
41816;DHT22;27814;53.452;-6.180;2023-02-01T04:43:50;8.20;99.90
41816;DHT22;27814;53.452;-6.180;2023-02-01T04:46:19;8.20;99.90
41816;DHT22;27814;53.452;-6.180;2023-02-01T04:48:49;8.30;99.90
41816;DHT22;27814;53.452;-6.180;2023-02-01T04:51:17;8.30;99.90
41816;DHT22;27814;53.452;-6.180;2023-02-01T04:53:46;8.30;99.90
41816;DHT22;27814;53.452;-6.180;2023-02-01T04:56:14;8.30;99.90
41816;DHT22;27814;53.452;-6.180;2023-02-01T04:58:42;8.30;99.90
41816;DHT22;27814;53.452;-6.180;2023-02-01T05:01:11;8.30;99.90
41816;DHT22;27814;53.452;-6.180;2023-02-01T05:03:39;8.30;99.90
41816;DHT22;27814;53.452;-6.180;2023-02-01T05:06:09;8.40;99.90
41816;DHT22;27814;53.452;-6.180;2023-02-01T05:08:37;8.40;99.90
41816;DHT22;27814;53.452;-6.180;2023-02-01T05:11:05;8.30;99.90
41816;DHT22;27814;53.452;-6.180;2023-02-01T05:13:53;8.30;99.90
41816;DHT22;27814;53.452;-6.180;2023-02-01T05:16:21;8.30;99.90
41816;DHT22;27814;53.452;-6.180;2023-02-01T05:18:49;8.40;99.90
41816;DHT22;27814;53.452;-6.180;2023-02-01T05:21:19;8.40;99.90
41816;DHT22;27814;53.452;-6.180;2023-02-01T05:23:47;8.30;99.90
41816;DHT22;27814;53.452;-6.180;2023-02-01T05:26:33;8.40;99.90
41816;DHT22;27814;53.452;-6.180;2023-02-01T05:29:01;8.40;99.90
41816;DHT22;27814;53.452;-6.180;2023-02-01T05:31:30;8.40;99.90
41816;DHT22;27814;53.452;-6.180;2023-02-01T05:33:59;8.30;99.90
41816;DHT22;27814;53.452;-6.180;2023-02-01T05:36:29;8.40;99.90
41816;DHT22;27814;53.452;-6.180;2023-02-01T05:38:57;8.30;99.90
41816;DHT22;27814;53.452;-6.180;2023-02-01T05:41:26;8.40;99.90
41816;DHT22;27814;53.452;-6.180;2023-02-01T05:43:54;8.40;99.90
41816;DHT22;27814;53.452;-6.180;2023-02-01T05:46:22;8.40;99.90
41816;DHT22;27814;53.452;-6.180;2023-02-01T05:48:51;8.30;99.90
41816;DHT22;27814;53.452;-6.180;2023-02-01T05:51:19;8.40;99.90
41816;DHT22;27814;53.452;-6.180;2023-02-01T05:53:49;8.30;99.90
41816;DHT22;27814;53.452;-6.180;2023-02-01T05:56:17;8.40;99.90
41816;DHT22;27814;53.452;-6.180;2023-02-01T05:58:45;8.30;99.90
41816;DHT22;27814;53.452;-6.180;2023-02-01T06:01:14;8.30;99.90
41816;DHT22;27814;53.452;-6.180;2023-02-01T06:03:42;8.30;99.90
41816;DHT22;27814;53.452;-6.180;2023-02-01T06:06:10;8.30;99.90
41816;DHT22;27814;53.452;-6.180;2023-02-01T06:08:39;8.30;99.90
41816;DHT22;27814;53.452;-6.180;2023-02-01T06:11:09;8.30;99.90
41816;DHT22;27814;53.452;-6.180;2023-02-01T06:13:46;8.30;99.90
41816;DHT22;27814;53.452;-6.180;2023-02-01T06:16:14;8.30;99.90
41816;DHT22;27814;53.452;-6.180;2023-02-01T06:18:42;8.30;99.90
41816;DHT22;27814;53.452;-6.180;2023-02-01T06:21:11;8.30;99.90
41816;DHT22;27814;53.452;-6.180;2023-02-01T06:23:40;8.40;99.90
41816;DHT22;27814;53.452;-6.180;2023-02-01T06:26:10;8.40;99.90
41816;DHT22;27814;53.452;-6.180;2023-02-01T06:28:38;8.40;99.90
41816;DHT22;27814;53.452;-6.180;2023-02-01T06:31:07;8.40;99.90
41816;DHT22;27814;53.452;-6.180;2023-02-01T06:33:36;8.40;99.90
41816;DHT22;27814;53.452;-6.180;2023-02-01T06:36:06;8.50;99.90
41816;DHT22;27814;53.452;-6.180;2023-02-01T06:38:35;8.40;99.90
41816;DHT22;27814;53.452;-6.180;2023-02-01T06:41:04;8.50;99.90
41816;DHT22;27814;53.452;-6.180;2023-02-01T06:43:34;8.50;99.90
41816;DHT22;27814;53.452;-6.180;2023-02-01T06:46:06;8.40;99.90
41816;DHT22;27814;53.452;-6.180;2023-02-01T06:48:35;8.50;99.90
41816;DHT22;27814;53.452;-6.180;2023-02-01T06:51:03;8.50;99.90
41816;DHT22;27814;53.452;-6.180;2023-02-01T06:53:32;8.50;99.90
41816;DHT22;27814;53.452;-6.180;2023-02-01T06:56:02;8.50;99.90
41816;DHT22;27814;53.452;-6.180;2023-02-01T06:58:32;8.50;99.90
41816;DHT22;27814;53.452;-6.180;2023-02-01T07:01:06;8.50;99.90
41816;DHT22;27814;53.452;-6.180;2023-02-01T07:03:35;8.50;99.90
41816;DHT22;27814;53.452;-6.180;2023-02-01T07:06:05;8.50;99.90
41816;DHT22;27814;53.452;-6.180;2023-02-01T07:08:35;8.50;99.90
41816;DHT22;27814;53.452;-6.180;2023-02-01T07:11:05;8.50;99.90
41816;DHT22;27814;53.452;-6.180;2023-02-01T07:13:33;8.60;99.90
41816;DHT22;27814;53.452;-6.180;2023-02-01T07:16:03;8.50;99.90
41816;DHT22;27814;53.452;-6.180;2023-02-01T07:18:33;8.60;99.90
41816;DHT22;27814;53.452;-6.180;2023-02-01T07:21:01;8.60;99.90
41816;DHT22;27814;53.452;-6.180;2023-02-01T07:23:30;8.60;99.90
41816;DHT22;27814;53.452;-6.180;2023-02-01T07:26:00;8.60;99.90
41816;DHT22;27814;53.452;-6.180;2023-02-01T07:28:31;8.60;99.90
41816;DHT22;27814;53.452;-6.180;2023-02-01T07:31:03;8.60;99.90
41816;DHT22;27814;53.452;-6.180;2023-02-01T07:33:34;8.60;99.90
41816;DHT22;27814;53.452;-6.180;2023-02-01T07:36:04;8.60;99.90
41816;DHT22;27814;53.452;-6.180;2023-02-01T07:38:33;8.60;99.90
41816;DHT22;27814;53.452;-6.180;2023-02-01T07:41:03;8.60;99.90
41816;DHT22;27814;53.452;-6.180;2023-02-01T07:43:32;8.70;99.90
41816;DHT22;27814;53.452;-6.180;2023-02-01T07:46:02;8.60;99.90
41816;DHT22;27814;53.452;-6.180;2023-02-01T07:48:31;8.60;99.90
41816;DHT22;27814;53.452;-6.180;2023-02-01T07:51:03;8.60;99.90
41816;DHT22;27814;53.452;-6.180;2023-02-01T07:53:33;8.70;99.90
41816;DHT22;27814;53.452;-6.180;2023-02-01T07:56:02;8.60;99.90
41816;DHT22;27814;53.452;-6.180;2023-02-01T07:58:31;8.60;99.90
41816;DHT22;27814;53.452;-6.180;2023-02-01T08:00:59;8.70;99.90
41816;DHT22;27814;53.452;-6.180;2023-02-01T08:03:45;8.70;99.90
41816;DHT22;27814;53.452;-6.180;2023-02-01T08:06:15;8.70;99.90
41816;DHT22;27814;53.452;-6.180;2023-02-01T08:08:43;8.70;99.90
41816;DHT22;27814;53.452;-6.180;2023-02-01T08:11:13;8.70;99.90
41816;DHT22;27814;53.452;-6.180;2023-02-01T08:13:42;8.70;99.90
41816;DHT22;27814;53.452;-6.180;2023-02-01T08:16:12;8.70;99.90
41816;DHT22;27814;53.452;-6.180;2023-02-01T08:18:41;8.80;99.90
41816;DHT22;27814;53.452;-6.180;2023-02-01T08:21:11;8.80;99.90
41816;DHT22;27814;53.452;-6.180;2023-02-01T08:23:42;8.80;99.90
41816;DHT22;27814;53.452;-6.180;2023-02-01T08:26:12;8.80;99.90
41816;DHT22;27814;53.452;-6.180;2023-02-01T08:28:43;8.80;99.90
41816;DHT22;27814;53.452;-6.180;2023-02-01T08:31:14;8.80;99.90
41816;DHT22;27814;53.452;-6.180;2023-02-01T08:33:44;8.80;99.90
41816;DHT22;27814;53.452;-6.180;2023-02-01T08:36:15;8.80;99.90
41816;DHT22;27814;53.452;-6.180;2023-02-01T08:38:45;8.80;99.90
41816;DHT22;27814;53.452;-6.180;2023-02-01T08:41:17;8.80;99.90
41816;DHT22;27814;53.452;-6.180;2023-02-01T08:43:46;8.90;99.90
41816;DHT22;27814;53.452;-6.180;2023-02-01T08:46:15;9.00;99.90
41816;DHT22;27814;53.452;-6.180;2023-02-01T08:48:45;9.00;99.90
41816;DHT22;27814;53.452;-6.180;2023-02-01T08:51:15;9.10;99.90
41816;DHT22;27814;53.452;-6.180;2023-02-01T08:53:45;9.10;99.90
41816;DHT22;27814;53.452;-6.180;2023-02-01T08:56:15;9.20;99.90
41816;DHT22;27814;53.452;-6.180;2023-02-01T08:58:44;9.30;99.90
41816;DHT22;27814;53.452;-6.180;2023-02-01T09:01:14;9.30;99.90
41816;DHT22;27814;53.452;-6.180;2023-02-01T09:03:44;9.40;99.90
41816;DHT22;27814;53.452;-6.180;2023-02-01T09:06:14;9.40;99.90
41816;DHT22;27814;53.452;-6.180;2023-02-01T09:08:44;9.40;99.90
41816;DHT22;27814;53.452;-6.180;2023-02-01T09:11:15;9.50;99.90
41816;DHT22;27814;53.452;-6.180;2023-02-01T09:13:44;9.60;99.90
41816;DHT22;27814;53.452;-6.180;2023-02-01T09:16:13;9.60;99.90
41816;DHT22;27814;53.452;-6.180;2023-02-01T09:18:41;9.70;99.90
41816;DHT22;27814;53.452;-6.180;2023-02-01T09:21:27;9.70;99.90
41816;DHT22;27814;53.452;-6.180;2023-02-01T09:23:57;9.70;99.90
41816;DHT22;27814;53.452;-6.180;2023-02-01T09:26:26;9.70;99.90
41816;DHT22;27814;53.452;-6.180;2023-02-01T09:28:59;9.70;99.90
41816;DHT22;27814;53.452;-6.180;2023-02-01T09:31:28;9.80;99.90
41816;DHT22;27814;53.452;-6.180;2023-02-01T09:33:56;9.80;99.90
41816;DHT22;27814;53.452;-6.180;2023-02-01T09:36:25;9.80;99.90
41816;DHT22;27814;53.452;-6.180;2023-02-01T09:38:58;9.80;99.90
41816;DHT22;27814;53.452;-6.180;2023-02-01T09:41:38;9.80;99.90
41816;DHT22;27814;53.452;-6.180;2023-02-01T09:44:19;9.90;99.90
41816;DHT22;27814;53.452;-6.180;2023-02-01T09:46:55;10.00;99.90
41816;DHT22;27814;53.452;-6.180;2023-02-01T09:49:27;10.00;99.90
41816;DHT22;27814;53.452;-6.180;2023-02-01T09:51:56;10.00;99.90
41816;DHT22;27814;53.452;-6.180;2023-02-01T09:54:33;10.10;99.90
41816;DHT22;27814;53.452;-6.180;2023-02-01T09:57:10;10.20;99.90
41816;DHT22;27814;53.452;-6.180;2023-02-01T09:59:41;10.20;99.90
41816;DHT22;27814;53.452;-6.180;2023-02-01T10:02:13;10.20;99.90
41816;DHT22;27814;53.452;-6.180;2023-02-01T10:04:43;10.30;99.90
41816;DHT22;27814;53.452;-6.180;2023-02-01T10:07:22;10.30;99.90
41816;DHT22;27814;53.452;-6.180;2023-02-01T10:09:59;10.30;99.90
41816;DHT22;27814;53.452;-6.180;2023-02-01T10:15:48;10.30;99.90
41816;DHT22;27814;53.452;-6.180;2023-02-01T10:18:31;10.30;99.90
41816;DHT22;27814;53.452;-6.180;2023-02-01T10:21:07;10.40;99.90
41816;DHT22;27814;53.452;-6.180;2023-02-01T10:23:53;10.40;99.90
41816;DHT22;27814;53.452;-6.180;2023-02-01T10:26:38;10.40;99.90
41816;DHT22;27814;53.452;-6.180;2023-02-01T10:29:14;10.40;99.90
41816;DHT22;27814;53.452;-6.180;2023-02-01T10:31:44;10.50;99.90
41816;DHT22;27814;53.452;-6.180;2023-02-01T10:34:18;10.50;99.90
41816;DHT22;27814;53.452;-6.180;2023-02-01T10:36:55;10.50;99.90
41816;DHT22;27814;53.452;-6.180;2023-02-01T10:39:25;10.60;99.90
41816;DHT22;27814;53.452;-6.180;2023-02-01T10:41:55;10.70;99.90
41816;DHT22;27814;53.452;-6.180;2023-02-01T10:44:27;10.70;99.90
41816;DHT22;27814;53.452;-6.180;2023-02-01T10:46:56;10.70;99.90
41816;DHT22;27814;53.452;-6.180;2023-02-01T10:49:33;10.70;99.90
41816;DHT22;27814;53.452;-6.180;2023-02-01T10:52:07;10.70;99.90
41816;DHT22;27814;53.452;-6.180;2023-02-01T10:54:40;10.80;99.90
41816;DHT22;27814;53.452;-6.180;2023-02-01T10:57:19;10.80;99.90
41816;DHT22;27814;53.452;-6.180;2023-02-01T10:59:47;10.80;99.90
41816;DHT22;27814;53.452;-6.180;2023-02-01T11:02:29;10.80;99.90
41816;DHT22;27814;53.452;-6.180;2023-02-01T11:05:03;10.80;99.90
41816;DHT22;27814;53.452;-6.180;2023-02-01T11:07:32;10.90;99.90
41816;DHT22;27814;53.452;-6.180;2023-02-01T11:10:01;10.90;99.90
41816;DHT22;27814;53.452;-6.180;2023-02-01T11:12:33;11.00;99.90
41816;DHT22;27814;53.452;-6.180;2023-02-01T11:15:14;11.00;99.90
41816;DHT22;27814;53.452;-6.180;2023-02-01T11:17:44;11.00;99.90
41816;DHT22;27814;53.452;-6.180;2023-02-01T11:20:15;11.10;99.90
41816;DHT22;27814;53.452;-6.180;2023-02-01T11:22:47;11.10;99.90
41816;DHT22;27814;53.452;-6.180;2023-02-01T11:25:16;11.20;99.90
41816;DHT22;27814;53.452;-6.180;2023-02-01T11:27:47;11.20;99.90
41816;DHT22;27814;53.452;-6.180;2023-02-01T11:30:30;11.20;99.90
41816;DHT22;27814;53.452;-6.180;2023-02-01T11:33:00;11.10;99.90
41816;DHT22;27814;53.452;-6.180;2023-02-01T11:35:32;11.20;99.90
41816;DHT22;27814;53.452;-6.180;2023-02-01T11:38:11;11.30;99.90
41816;DHT22;27814;53.452;-6.180;2023-02-01T11:40:41;11.30;99.90
41816;DHT22;27814;53.452;-6.180;2023-02-01T11:43:15;11.40;99.90
41816;DHT22;27814;53.452;-6.180;2023-02-01T11:45:54;11.40;99.90
41816;DHT22;27814;53.452;-6.180;2023-02-01T11:48:25;11.50;99.90
41816;DHT22;27814;53.452;-6.180;2023-02-01T11:51:04;11.50;99.90
41816;DHT22;27814;53.452;-6.180;2023-02-01T11:53:46;11.50;99.90
41816;DHT22;27814;53.452;-6.180;2023-02-01T11:56:27;11.60;99.90
41816;DHT22;27814;53.452;-6.180;2023-02-01T11:59:17;11.70;99.90
41816;DHT22;27814;53.452;-6.180;2023-02-01T12:01:57;11.70;99.90
41816;DHT22;27814;53.452;-6.180;2023-02-01T12:07:46;11.80;99.90
41816;DHT22;27814;53.452;-6.180;2023-02-01T12:10:26;11.80;99.90
41816;DHT22;27814;53.452;-6.180;2023-02-01T12:13:05;11.90;99.90
41816;DHT22;27814;53.452;-6.180;2023-02-01T12:15:46;11.90;99.90
41816;DHT22;27814;53.452;-6.180;2023-02-01T12:21:49;11.90;99.90
41816;DHT22;27814;53.452;-6.180;2023-02-01T12:24:44;11.80;99.90
41816;DHT22;27814;53.452;-6.180;2023-02-01T12:27:38;11.90;99.90
41816;DHT22;27814;53.452;-6.180;2023-02-01T12:30:25;11.90;99.90
41816;DHT22;27814;53.452;-6.180;2023-02-01T12:33:05;11.90;99.90
41816;DHT22;27814;53.452;-6.180;2023-02-01T12:35:55;11.90;99.90
41816;DHT22;27814;53.452;-6.180;2023-02-01T12:38:41;12.00;99.90
41816;DHT22;27814;53.452;-6.180;2023-02-01T12:41:25;12.00;99.90
41816;DHT22;27814;53.452;-6.180;2023-02-01T12:43:58;12.00;99.90
41816;DHT22;27814;53.452;-6.180;2023-02-01T12:46:30;12.00;99.90
41816;DHT22;27814;53.452;-6.180;2023-02-01T12:49:06;12.10;99.90
41816;DHT22;27814;53.452;-6.180;2023-02-01T12:51:40;12.10;99.90
41816;DHT22;27814;53.452;-6.180;2023-02-01T12:54:12;12.10;99.90
41816;DHT22;27814;53.452;-6.180;2023-02-01T12:56:44;12.10;99.90
41816;DHT22;27814;53.452;-6.180;2023-02-01T12:59:20;12.20;99.90
41816;DHT22;27814;53.452;-6.180;2023-02-01T13:01:54;12.20;99.90
41816;DHT22;27814;53.452;-6.180;2023-02-01T13:04:31;12.20;99.90
41816;DHT22;27814;53.452;-6.180;2023-02-01T13:07:08;12.20;99.90
41816;DHT22;27814;53.452;-6.180;2023-02-01T13:09:43;12.30;99.90
41816;DHT22;27814;53.452;-6.180;2023-02-01T13:12:16;12.30;99.90
41816;DHT22;27814;53.452;-6.180;2023-02-01T13:14:49;12.30;99.90
41816;DHT22;27814;53.452;-6.180;2023-02-01T13:17:22;12.30;99.90
41816;DHT22;27814;53.452;-6.180;2023-02-01T13:19:56;12.30;99.90
41816;DHT22;27814;53.452;-6.180;2023-02-01T13:22:28;12.30;99.90
41816;DHT22;27814;53.452;-6.180;2023-02-01T13:25:00;12.40;99.90
41816;DHT22;27814;53.452;-6.180;2023-02-01T13:27:31;12.40;99.90
41816;DHT22;27814;53.452;-6.180;2023-02-01T13:30:03;12.40;99.90
41816;DHT22;27814;53.452;-6.180;2023-02-01T13:32:57;12.40;99.90
41816;DHT22;27814;53.452;-6.180;2023-02-01T13:36:10;12.40;99.90
41816;DHT22;27814;53.452;-6.180;2023-02-01T13:41:52;12.50;99.90
41816;DHT22;27814;53.452;-6.180;2023-02-01T13:44:28;12.50;99.90
41816;DHT22;27814;53.452;-6.180;2023-02-01T13:46:59;12.60;99.90
41816;DHT22;27814;53.452;-6.180;2023-02-01T13:49:30;12.60;99.90
41816;DHT22;27814;53.452;-6.180;2023-02-01T13:52:01;12.50;99.90
41816;DHT22;27814;53.452;-6.180;2023-02-01T13:54:32;12.60;99.90
41816;DHT22;27814;53.452;-6.180;2023-02-01T13:57:02;12.60;99.90
41816;DHT22;27814;53.452;-6.180;2023-02-01T13:59:50;12.60;99.90
41816;DHT22;27814;53.452;-6.180;2023-02-01T14:02:49;12.60;99.90
41816;DHT22;27814;53.452;-6.180;2023-02-01T14:11:38;12.60;99.90
41816;DHT22;27814;53.452;-6.180;2023-02-01T14:23:15;12.50;99.90
41816;DHT22;27814;53.452;-6.180;2023-02-01T14:25:49;12.40;99.90
41816;DHT22;27814;53.452;-6.180;2023-02-01T14:28:29;12.40;99.90
41816;DHT22;27814;53.452;-6.180;2023-02-01T14:30:58;12.40;99.90
41816;DHT22;27814;53.452;-6.180;2023-02-01T14:33:27;12.50;99.90
41816;DHT22;27814;53.452;-6.180;2023-02-01T14:36:08;12.50;99.90
41816;DHT22;27814;53.452;-6.180;2023-02-01T14:38:38;12.50;99.90
41816;DHT22;27814;53.452;-6.180;2023-02-01T14:41:24;12.50;99.90
41816;DHT22;27814;53.452;-6.180;2023-02-01T14:44:22;12.50;99.90
41816;DHT22;27814;53.452;-6.180;2023-02-01T14:50:18;12.50;99.90
41816;DHT22;27814;53.452;-6.180;2023-02-01T14:52:58;12.50;99.90
41816;DHT22;27814;53.452;-6.180;2023-02-01T14:55:33;12.60;99.90
41816;DHT22;27814;53.452;-6.180;2023-02-01T14:58:07;12.60;99.90
41816;DHT22;27814;53.452;-6.180;2023-02-01T15:00:48;12.60;99.90
41816;DHT22;27814;53.452;-6.180;2023-02-01T15:03:34;12.70;99.90
41816;DHT22;27814;53.452;-6.180;2023-02-01T15:06:02;12.70;99.90
41816;DHT22;27814;53.452;-6.180;2023-02-01T15:08:35;12.70;99.90
41816;DHT22;27814;53.452;-6.180;2023-02-01T15:11:08;12.70;99.90
41816;DHT22;27814;53.452;-6.180;2023-02-01T15:13:48;12.60;99.90
41816;DHT22;27814;53.452;-6.180;2023-02-01T15:16:22;12.50;99.90
41816;DHT22;27814;53.452;-6.180;2023-02-01T15:18:50;12.50;99.90
41816;DHT22;27814;53.452;-6.180;2023-02-01T15:21:44;12.40;99.90
41816;DHT22;27814;53.452;-6.180;2023-02-01T15:24:14;12.40;99.90
41816;DHT22;27814;53.452;-6.180;2023-02-01T15:26:46;12.40;99.90
41816;DHT22;27814;53.452;-6.180;2023-02-01T15:29:16;12.40;99.90
41816;DHT22;27814;53.452;-6.180;2023-02-01T15:31:46;12.40;99.90
41816;DHT22;27814;53.452;-6.180;2023-02-01T15:34:15;12.40;99.90
41816;DHT22;27814;53.452;-6.180;2023-02-01T15:36:45;12.40;99.90
41816;DHT22;27814;53.452;-6.180;2023-02-01T15:39:28;12.40;99.90
41816;DHT22;27814;53.452;-6.180;2023-02-01T15:42:01;12.40;99.90
41816;DHT22;27814;53.452;-6.180;2023-02-01T15:44:40;12.40;99.90
41816;DHT22;27814;53.452;-6.180;2023-02-01T15:47:15;12.40;99.90
41816;DHT22;27814;53.452;-6.180;2023-02-01T15:49:47;12.40;99.90
41816;DHT22;27814;53.452;-6.180;2023-02-01T15:52:24;12.40;99.90
41816;DHT22;27814;53.452;-6.180;2023-02-01T15:54:56;12.40;99.90
41816;DHT22;27814;53.452;-6.180;2023-02-01T15:57:27;12.40;99.90
41816;DHT22;27814;53.452;-6.180;2023-02-01T16:00:02;12.40;99.90
41816;DHT22;27814;53.452;-6.180;2023-02-01T16:02:34;12.40;99.90
41816;DHT22;27814;53.452;-6.180;2023-02-01T16:05:21;12.40;99.90
41816;DHT22;27814;53.452;-6.180;2023-02-01T16:07:57;12.30;99.90
41816;DHT22;27814;53.452;-6.180;2023-02-01T16:10:31;12.30;99.90
41816;DHT22;27814;53.452;-6.180;2023-02-01T16:13:05;12.30;99.90
41816;DHT22;27814;53.452;-6.180;2023-02-01T16:15:35;12.30;99.90
41816;DHT22;27814;53.452;-6.180;2023-02-01T16:18:04;12.20;99.90
41816;DHT22;27814;53.452;-6.180;2023-02-01T16:20:35;12.20;99.90
41816;DHT22;27814;53.452;-6.180;2023-02-01T16:23:04;12.20;99.90
41816;DHT22;27814;53.452;-6.180;2023-02-01T16:25:32;12.20;99.90
41816;DHT22;27814;53.452;-6.180;2023-02-01T16:28:01;12.20;99.90
41816;DHT22;27814;53.452;-6.180;2023-02-01T16:30:29;12.20;99.90
41816;DHT22;27814;53.452;-6.180;2023-02-01T16:33:00;12.20;99.90
41816;DHT22;27814;53.452;-6.180;2023-02-01T16:35:33;12.10;99.90
41816;DHT22;27814;53.452;-6.180;2023-02-01T16:38:03;12.10;99.90
41816;DHT22;27814;53.452;-6.180;2023-02-01T16:40:35;12.10;99.90
41816;DHT22;27814;53.452;-6.180;2023-02-01T16:43:11;12.00;99.90